Terminal Aerodrome Forecast
Issued by NWS

Home | Current Version | Previous Version | Text Only | Print | Product List | Glossary On
Versions: 1 2 3 4 5 6 7 8 9 10 11 12 13 14 15 16 17 18 19 20 21 22 23 24 25 26 27 28 29 30 31 32 33 34 35 36 37 38
834
FTUS45 KGJT 280541
TAFMTJ
TAF
KMTJ 280541Z 2806/2906 08012KT P6SM -SHRA BKN050 OVC100
     FM281000 15004KT 6SM BR VCSH OVC030
     FM281600 30007KT P6SM VCSH BKN040
     FM281900 30008KT 6SM BR VCSH BKN050
     FM282100 31008KT P6SM VCTS BKN045CB
     FM282300 30012G24KT P6SM VCTS OVC040CB=

USA.gov is the U.S. government's official web portal to all federal, state and local government web resources and services.